AirNav   Air Wisconsin Up To $57,000 Bonus
 
 1527 users online  

1MA9 Morton Hospital Heliport
Taunton, Massachusetts, USA

GOING TO TAUNTON?


FAA INFORMATION EFFECTIVE 07 NOVEMBER 2019

Location

FAA Identifier: 1MA9
Lat/Long: 41-54-20.5700N 071-05-41.9800W
41-54.342833N 071-05.699667W
41.9057139,-71.0949944
(estimated)
Elevation: 50 ft. / 15 m (estimated)
Variation: 16W (1995)
Time zone: UTC -5 (UTC -4 during Daylight Saving Time)
Zip code: 02780

Heliport Operations

Heliport use: Private use, MEDICAL USE.
Activation date: 03/1998
Control tower: no
ARTCC: BOSTON CENTER
FSS: BRIDGEPORT FLIGHT SERVICE STATION
Attendance: UNATNDD
Segmented circle: no

Heliport Communications

WX ASOS at TAN (4 nm SE): 132.675 (508-824-5005)
WX ASOS at EWB (15 nm SE): 126.85 (508-992-0195)
WX ASOS at PYM (16 nm E): 135.625 (508-746-8003)
WX ASOS at OWD (17 nm N): 119.95 (781-762-4314)
WX AWOS-3PT at SFZ (18 nm W): 120.775 (401-334-0324)
WX ASOS at PVD (19 nm SW): 124.2 (401-734-2818)

Nearby radio navigation aids

VOR radial/distance  VOR name  Freq  Var
PVDr068/18.5PROVIDENCE VOR/DME115.6014W
BOSr206/27.5BOSTON VOR/DME112.7016W
PUTr109/33.6PUTNAM VOR/DME117.4014W
MVYr340/37.4MARTHAS VINEYARD VOR/DME114.5015W

 
NDB name  Hdg/Dist  Freq  Var  ID
TAUNTON313/4.022716WTAN - .- -.
STOGE188/12.939715WOW --- .--
MARSHFIELD254/22.036816WIMR .. -- .-.
SHAKER HILL190/33.225116WSKR ... -.- .-.

Heliport Services

Runway Information

Helipad H1

Dimensions: 40 x 40 ft. / 12 x 12 m
Surface: asphalt
Latitude: 41-54.342833N
Longitude: 071-05.699667W
Elevation: 50.0 ft.
Traffic pattern: leftleft

Heliport Ownership and Management from official FAA records

Ownership: Privately-owned
Owner: MORTON HOSPITAL
88 WASHINGTON STREET
TAUNTON, MA 02780
Phone 508-828-7000
Manager: TODD MARTIN
88 WASHINGTON STREET
TAUNTON, MA 02780
Phone (508) 828-7137
ADDITIONAL CONTACT: JOSIAH MOYER 508-828-7451 JOSIAH.MOYER@STEWARD.ORG

Additional Remarks

A52-H1 30 FT BLDG 100 FT E OF HELIPAD.
ROOFTOP.
FOR CD CTC PROVIDENCE APCH AT 401-738-8945, WHEN APCH CLSD CTC BOSTON ARTCC AT 603-879-6859.

Instrument Procedures

There are no published instrument procedures at 1MA9.

Some nearby airports with instrument procedures:

KTAN - Taunton Municipal Airport - King Field (4 nm SE)
1B9 - Mansfield Municipal Airport (7 nm NW)
KEWB - New Bedford Regional Airport (15 nm SE)
KPYM - Plymouth Municipal Airport (16 nm E)
KOWD - Norwood Memorial Airport (17 nm N)
KSFZ - North Central State Airport (18 nm W)
KPVD - Theodore Francis Green State Airport (19 nm SW)
 
Loc | Ops | Rwys | IFR | FBO | Links
Com | Nav | Svcs | Stats | Notes
Area around 1MA9 (Morton Hospital Heliport)
 
Road maps at: MapQuest Bing Google
 
Aerial photo
No photo
 
Sectional chart

 
Airport distance calculator
Flying to Morton Hospital Heliport? Find the distance to fly.

From to 1MA9

Sunrise and sunset
Times for 19-Nov-2019
 Local
(UTC-5)
 Zulu
(UTC)
Morning civil twilight06:1011:10
Sunrise06:4011:40
Sunset16:2021:20
Evening civil twilight16:5021:50

Current date and time
Zulu (UTC)  19-Nov-2019 17:37:24
Local (UTC-5)  19-Nov-2019 12:37:24
 
METAR
KTAN 
4nm E 
191721Z AUTO VRB04KT 10SM SCT008 BKN017 OVC026 08/06 A2975 RMK AO2 T00780056
KEWB 
15nm SE 
191653Z 19003KT 10SM BKN006 BKN010 OVC023 07/06 A2974 RMK AO2 SLP072 T00720061
KPYM 
16nm E 
191652Z AUTO 24005KT 6SM BR OVC008 07/06 A2975 RMK AO2 RAB33E42 CIG 004V010 SLP073 P0000 T00670061
KOWD 
17nm N 
191707Z 21003KT 4SM BR OVC009 08/04 A2975 RMK AO2 CIG 005V012 T00780044
KSFZ 
18nm W 
191656Z AUTO 26007KT 10SM OVC010 06/04 A2974 RMK AO2 CIG 007V015 SLP020 T00560044
KMQE 
19nm N 
191651Z AUTO 21003KT 04/04 A2972 RMK AO1 SLP080 P0001 T00440044
KPVD 
19nm SW 
191651Z 28007KT 10SM BKN022 07/05 A2976 RMK AO2 SLP076 T00720050
TAF
KPVD 
19nm SW 
191503Z 1915/2012 00000KT 4SM -DZ FEW005 OVC030 FM191600 27004KT P6SM BKN008 FM191900 28004KT P6SM BKN020 FM192100 31004KT P6SM BKN022 FM200200 34003KT P6SM BKN020 FM200800 35005KT 5SM BR VCSH OVC010
NOTAMs
Click for the latest NOTAMs
NOTAMs are issued by the DoD/FAA and will open in a separate window not controlled by AirNav.

 

 
 

Would you like to see your business listed on this page?

 If your business provides an interesting product or service to pilots, flight crews, aircraft, or users of the Morton Hospital Heliport, you should consider listing it here.  To start the listing process, click on the button below
 
Add a business
 

Other Pages about Morton Hospital Heliport

Update a link
 
Copyright © AirNav, LLC. All rights reserved. Privacy Policy  Contact